createdAt,value
2024-03-14T00:00:19.839Z,101513.78
2024-03-14T00:02:47.884Z,101508.50
2024-03-14T00:05:15.879Z,101512.41
2024-03-14T00:07:43.353Z,101512.59
2024-03-14T00:10:11.526Z,101508.53
2024-03-14T00:12:38.756Z,101513.09
2024-03-14T00:15:07.632Z,101507.94
2024-03-14T00:17:35.372Z,101499.97
2024-03-14T00:20:05.410Z,101501.13
2024-03-14T00:22:33.149Z,101504.66
2024-03-14T00:25:00.166Z,101506.50
2024-03-14T00:27:27.247Z,101503.03
2024-03-14T00:29:57.177Z,101500.44
2024-03-14T00:32:26.043Z,101500.44
2024-03-14T00:34:53.063Z,101499.56
2024-03-14T00:37:20.132Z,101498.78
2024-03-14T00:39:47.594Z,101491.56
2024-03-14T00:42:15.315Z,101496.00
2024-03-14T00:44:43.726Z,101494.25
2024-03-14T00:47:10.812Z,101493.19
2024-03-14T00:49:39.885Z,101494.84
2024-03-14T00:52:07.035Z,101493.97
2024-03-14T00:54:35.177Z,101494.84
2024-03-14T00:57:04.199Z,101492.16
2024-03-14T00:59:32.092Z,101499.38
2024-03-14T01:01:59.462Z,101488.69
2024-03-14T01:04:26.597Z,101488.78
2024-03-14T01:06:54.234Z,101490.59
2024-03-14T01:09:26.844Z,101482.63
2024-03-14T01:11:54.587Z,101490.69
2024-03-14T01:14:25.979Z,101488.97
2024-03-14T01:16:53.076Z,101488.97
2024-03-14T01:19:20.387Z,101488.09
2024-03-14T01:21:47.492Z,101486.47
2024-03-14T01:24:15.310Z,101489.25
2024-03-14T01:26:43.841Z,101487.59
2024-03-14T01:29:12.429Z,101486.72
2024-03-14T01:31:39.967Z,101479.69
2024-03-14T01:34:07.287Z,101479.09
2024-03-14T01:36:38.733Z,101481.91
2024-03-14T01:39:12.494Z,101480.31
2024-03-14T01:41:39.817Z,101477.91
2024-03-14T01:44:07.105Z,101476.34
2024-03-14T01:46:34.925Z,101474.63
2024-03-14T01:49:03.268Z,101464.81
2024-03-14T01:51:31.877Z,101468.56
2024-03-14T01:54:01.137Z,101467.75
2024-03-14T01:56:34.437Z,101469.63
2024-03-14T01:59:02.868Z,101463.34
2024-03-14T02:01:29.920Z,101465.16
2024-03-14T02:04:18.751Z,101464.22
2024-03-14T02:06:54.289Z,101457.78
2024-03-14T02:09:24.139Z,101459.50
2024-03-14T02:11:52.073Z,101452.22
2024-03-14T02:14:19.322Z,101442.41
2024-03-14T02:16:46.316Z,101447.50
2024-03-14T02:19:13.431Z,101438.47
2024-03-14T02:21:43.592Z,101435.03
2024-03-14T02:24:10.595Z,101427.88
2024-03-14T02:26:41.903Z,101431.72
2024-03-14T02:29:09.048Z,101429.88
2024-03-14T02:31:41.489Z,101428.16
2024-03-14T02:34:08.521Z,101424.09
2024-03-14T02:36:36.842Z,101422.28
2024-03-14T02:39:06.509Z,101418.03
2024-03-14T02:41:33.510Z,101418.13
2024-03-14T02:44:00.477Z,101417.44
2024-03-14T02:46:27.487Z,101416.69
2024-03-14T02:48:57.306Z,101418.59
2024-03-14T02:51:24.380Z,101414.22
2024-03-14T02:53:51.511Z,101419.88
2024-03-14T02:56:18.804Z,101410.00
2024-03-14T02:58:45.741Z,101407.56
2024-03-14T03:01:13.779Z,101408.81
2024-03-14T03:03:43.029Z,101408.13
2024-03-14T03:06:12.902Z,101412.72
2024-03-14T03:08:40.078Z,101400.38
2024-03-14T03:11:08.169Z,101395.19
2024-03-14T03:13:35.505Z,101399.88
2024-03-14T03:16:05.657Z,101395.53
2024-03-14T03:18:36.574Z,101392.84
2024-03-14T03:21:03.879Z,101394.75
2024-03-14T03:23:31.972Z,101400.22
2024-03-14T03:25:59.213Z,101393.97
2024-03-14T03:28:29.102Z,101387.81
2024-03-14T03:30:57.034Z,101391.66
2024-03-14T03:33:25.434Z,101388.06
2024-03-14T03:35:52.612Z,101383.75
2024-03-14T03:38:20.101Z,101381.22
2024-03-14T03:40:47.028Z,101386.69
2024-03-14T03:43:14.063Z,101387.72
2024-03-14T03:45:41.193Z,101378.84
2024-03-14T03:48:13.200Z,101377.13
2024-03-14T03:50:43.927Z,101385.28
2024-03-14T03:53:10.880Z,101377.28
2024-03-14T03:55:38.197Z,101373.66
2024-03-14T03:58:05.793Z,101373.84
2024-03-14T04:00:38.094Z,101373.94
2024-03-14T04:03:11.018Z,101370.38
2024-03-14T04:05:39.306Z,101366.81
2024-03-14T04:08:07.013Z,101372.34
2024-03-14T04:10:35.083Z,101370.69
2024-03-14T04:13:02.889Z,101378.00
2024-03-14T04:15:30.509Z,101370.97
2024-03-14T04:17:59.220Z,101366.38
2024-03-14T04:20:29.476Z,101370.03
2024-03-14T04:23:00.654Z,101373.66
2024-03-14T04:25:27.716Z,101375.72
2024-03-14T04:27:54.956Z,101372.34
2024-03-14T04:30:23.075Z,101371.56
2024-03-14T04:32:53.650Z,101373.47
2024-03-14T04:35:23.572Z,101365.25
2024-03-14T04:37:51.177Z,101374.34
2024-03-14T04:40:18.497Z,101368.25
2024-03-14T04:42:48.119Z,101371.13
2024-03-14T04:45:23.134Z,101370.31
2024-03-14T04:47:50.629Z,101372.25
2024-03-14T04:50:22.964Z,101365.31
2024-03-14T04:52:55.750Z,101361.91
2024-03-14T04:55:24.755Z,101368.34
2024-03-14T04:57:51.719Z,101363.16
2024-03-14T05:00:23.357Z,101373.09
2024-03-14T05:02:52.736Z,101373.19
2024-03-14T05:05:22.972Z,101376.81
2024-03-14T05:07:51.707Z,101372.56
2024-03-14T05:10:22.692Z,101376.28
2024-03-14T05:12:50.417Z,101378.03
2024-03-14T05:15:18.283Z,101380.72
2024-03-14T05:17:47.183Z,101379.75
2024-03-14T05:20:15.811Z,101373.59
2024-03-14T05:22:44.690Z,101363.91
2024-03-14T05:25:14.192Z,101375.47
2024-03-14T05:27:51.429Z,101358.63
2024-03-14T05:30:19.928Z,101371.97
2024-03-14T05:32:47.070Z,101362.16
2024-03-14T05:35:14.199Z,101364.22
2024-03-14T05:37:44.310Z,101362.50
2024-03-14T05:40:11.900Z,101366.06
2024-03-14T05:42:39.433Z,101368.88
2024-03-14T05:45:07.105Z,101372.44
2024-03-14T05:47:36.783Z,101378.69
2024-03-14T05:50:09.025Z,101366.38
2024-03-14T05:52:41.288Z,101372.69
2024-03-14T05:55:11.744Z,101371.56
2024-03-14T05:57:39.374Z,101374.25
2024-03-14T06:00:07.289Z,101368.13
2024-03-14T06:02:44.957Z,101365.44
2024-03-14T06:05:11.981Z,101355.63
2024-03-14T06:07:39.515Z,101359.09
2024-03-14T06:10:08.433Z,101364.38
2024-03-14T06:12:38.588Z,101371.56
2024-03-14T06:15:13.448Z,101368.78
2024-03-14T06:17:42.310Z,101371.34
2024-03-14T06:20:10.773Z,101363.09
2024-03-14T06:22:41.068Z,101364.75
2024-03-14T06:25:08.765Z,101369.09
2024-03-14T06:27:36.157Z,101364.44
2024-03-14T06:30:05.926Z,101372.22
2024-03-14T06:32:34.535Z,101367.56
2024-03-14T06:35:01.549Z,101367.38
2024-03-14T06:37:29.300Z,101366.09
2024-03-14T06:39:56.392Z,101361.25
2024-03-14T06:42:24.590Z,101364.47
2024-03-14T06:44:56.985Z,101365.84
2024-03-14T06:47:24.962Z,101370.88
2024-03-14T06:49:52.656Z,101369.66
2024-03-14T06:52:19.649Z,101364.72
2024-03-14T06:54:46.662Z,101360.81
2024-03-14T06:57:13.620Z,101358.69
2024-03-14T06:59:41.241Z,101364.56
2024-03-14T07:02:09.341Z,101356.13
2024-03-14T07:04:36.457Z,101352.13
2024-03-14T07:07:03.502Z,101355.22
2024-03-14T07:09:31.980Z,101351.22
2024-03-14T07:11:59.949Z,101355.13
2024-03-14T07:14:27.080Z,101356.00
2024-03-14T07:16:55.221Z,101348.66
2024-03-14T07:19:25.180Z,101337.47
2024-03-14T07:21:55.195Z,101333.75
2024-03-14T07:24:26.693Z,101330.94
2024-03-14T07:27:10.550Z,101321.22
2024-03-14T07:29:37.763Z,101326.94
2024-03-14T07:32:05.966Z,101316.19
2024-03-14T07:34:36.108Z,101316.78
2024-03-14T07:37:03.354Z,101315.81
2024-03-14T07:39:31.757Z,101316.41
2024-03-14T07:41:59.449Z,101316.06
2024-03-14T07:47:05.272Z,101301.91
2024-03-14T07:49:34.713Z,101309.59
2024-03-14T07:52:01.674Z,101306.00
2024-03-14T07:54:29.006Z,101307.69
2024-03-14T07:56:56.139Z,101315.25
2024-03-14T07:59:26.223Z,101328.91
2024-03-14T08:01:53.958Z,101328.91
2024-03-14T08:04:25.206Z,101337.75
2024-03-14T08:06:52.479Z,101331.88
2024-03-14T08:09:21.509Z,101333.94
2024-03-14T08:11:48.506Z,101338.19
2024-03-14T08:14:16.463Z,101346.78
2024-03-14T08:16:47.574Z,101320.91
2024-03-14T08:19:17.200Z,101321.66
2024-03-14T08:21:49.577Z,101324.09
2024-03-14T08:24:18.128Z,101311.78
2024-03-14T08:26:48.594Z,101317.72
2024-03-14T08:29:16.321Z,101313.91
2024-03-14T08:31:44.950Z,101315.59
2024-03-14T08:34:13.210Z,101311.94
2024-03-14T08:36:45.433Z,101313.34
2024-03-14T08:39:14.047Z,101309.63
2024-03-14T08:41:41.261Z,101308.53
2024-03-14T08:44:08.527Z,101294.53
2024-03-14T08:46:37.010Z,101295.81
2024-03-14T08:49:04.963Z,101286.78
2024-03-14T08:51:39.851Z,101285.19
2024-03-14T08:54:11.184Z,101286.09
2024-03-14T08:56:39.010Z,101291.03
2024-03-14T08:59:14.908Z,101294.13
2024-03-14T09:01:47.039Z,101289.53
2024-03-14T09:04:20.317Z,101293.56
2024-03-14T09:06:51.890Z,101289.19
2024-03-14T09:09:36.031Z,101290.72
2024-03-14T09:12:17.725Z,101288.72
2024-03-14T09:14:45.179Z,101284.22
2024-03-14T09:17:13.015Z,101291.63
2024-03-14T09:19:51.346Z,101289.75
2024-03-14T09:22:18.942Z,101291.56
2024-03-14T09:24:46.052Z,101286.19
2024-03-14T09:27:35.641Z,101284.09
2024-03-14T09:30:10.237Z,101290.44
2024-03-14T09:32:37.421Z,101295.13
2024-03-14T09:35:11.149Z,101289.25
2024-03-14T09:37:38.265Z,101283.16
2024-03-14T09:40:08.372Z,101283.91
2024-03-14T09:42:35.599Z,101276.00
2024-03-14T09:45:02.909Z,101283.19
2024-03-14T09:51:08.822Z,101273.94
2024-03-14T09:53:39.126Z,101273.94
2024-03-14T09:56:06.586Z,101273.19
2024-03-14T09:58:34.396Z,101278.25
2024-03-14T10:01:05.680Z,101271.25
2024-03-14T10:03:35.733Z,101259.75
2024-03-14T10:06:16.346Z,101253.09
2024-03-14T10:09:00.823Z,101260.59
2024-03-14T10:11:29.668Z,101255.59
2024-03-14T10:14:08.243Z,101259.22
2024-03-14T10:16:36.008Z,101254.75
2024-03-14T10:19:03.783Z,101247.59
2024-03-14T10:21:31.103Z,101252.47
2024-03-14T10:23:59.184Z,101253.41
2024-03-14T10:26:26.393Z,101242.66
2024-03-14T10:28:53.431Z,101240.28
2024-03-14T10:31:22.760Z,101237.09
2024-03-14T10:33:50.740Z,101237.97
2024-03-14T10:36:20.353Z,101239.06
2024-03-14T10:38:51.980Z,101237.13
2024-03-14T10:41:22.467Z,101222.84
2024-03-14T10:43:59.500Z,101218.88
2024-03-14T10:46:28.760Z,101223.28
2024-03-14T10:48:57.166Z,101214.25
2024-03-14T10:51:28.467Z,101211.72
2024-03-14T10:53:57.448Z,101216.00
2024-03-14T10:56:27.131Z,101209.91
2024-03-14T10:58:57.507Z,101214.03
2024-03-14T11:01:27.499Z,101204.19
2024-03-14T11:03:55.088Z,101223.81
2024-03-14T11:06:26.171Z,101214.22
2024-03-14T11:08:56.748Z,101215.50
2024-03-14T11:11:26.140Z,101214.03
2024-03-14T11:13:54.840Z,101213.88
2024-03-14T11:16:26.814Z,101204.16
2024-03-14T11:19:02.223Z,101205.94
2024-03-14T11:21:36.262Z,101211.84
2024-03-14T11:24:11.762Z,101197.84
2024-03-14T11:26:44.732Z,101197.00
2024-03-14T11:29:16.501Z,101204.88
2024-03-14T11:31:45.741Z,101215.84
2024-03-14T11:34:19.844Z,101213.88
2024-03-14T11:36:50.207Z,101207.50
2024-03-14T11:39:28.049Z,101199.69
2024-03-14T11:42:13.696Z,101206.97
2024-03-14T11:44:48.180Z,101207.75
2024-03-14T11:47:42.107Z,101204.31
2024-03-14T11:50:14.771Z,101208.00
2024-03-14T11:52:43.398Z,101199.00
2024-03-14T11:55:13.264Z,101189.31
2024-03-14T11:57:45.814Z,101189.56
2024-03-14T12:00:13.270Z,101183.66
2024-03-14T12:02:41.721Z,101178.69
2024-03-14T12:05:21.379Z,101178.47
2024-03-14T12:07:48.492Z,101175.25
2024-03-14T12:10:17.226Z,101182.06
2024-03-14T12:12:44.917Z,101172.91
2024-03-14T12:15:12.093Z,101168.63
2024-03-14T12:17:39.263Z,101162.03
2024-03-14T12:20:12.191Z,101158.78
2024-03-14T12:22:47.466Z,101152.59
2024-03-14T12:25:17.476Z,101156.66
2024-03-14T12:27:45.339Z,101146.47
2024-03-14T12:30:12.789Z,101153.44
2024-03-14T12:32:42.425Z,101143.03
2024-03-14T12:35:14.722Z,101136.09
2024-03-14T12:37:41.944Z,101136.84
2024-03-14T12:40:15.524Z,101143.59
2024-03-14T12:42:47.588Z,101135.25
2024-03-14T12:45:17.820Z,101127.00
2024-03-14T12:47:48.873Z,101116.88
2024-03-14T12:50:29.608Z,101116.44
2024-03-14T12:53:08.732Z,101111.41
2024-03-14T12:55:35.979Z,101106.25
2024-03-14T12:58:07.102Z,101101.47
2024-03-14T13:00:36.200Z,101094.38
2024-03-14T13:03:03.531Z,101097.31
2024-03-14T13:05:30.766Z,101092.53
2024-03-14T13:08:05.661Z,101085.47
2024-03-14T13:10:36.910Z,101086.41
2024-03-14T13:13:05.244Z,101080.19
2024-03-14T13:15:38.765Z,101068.31
2024-03-14T13:18:14.532Z,101080.59
2024-03-14T13:20:47.831Z,101067.06
2024-03-14T13:23:15.246Z,101073.34
2024-03-14T13:25:44.044Z,101063.06
2024-03-14T13:28:11.387Z,101063.38
2024-03-14T13:30:38.558Z,101064.22
2024-03-14T13:33:11.294Z,101054.31
2024-03-14T13:35:41.874Z,101055.34
2024-03-14T13:38:09.194Z,101053.75
2024-03-14T13:40:36.244Z,101052.03
2024-03-14T13:43:08.356Z,101055.56
2024-03-14T13:45:45.226Z,101046.34
2024-03-14T13:48:12.469Z,101050.63
2024-03-14T13:50:42.381Z,101042.66
2024-03-14T13:53:09.395Z,101036.56
2024-03-14T13:55:38.477Z,101038.59
2024-03-14T13:58:07.799Z,101034.59
2024-03-14T14:00:48.482Z,101036.22
2024-03-14T14:03:20.924Z,101027.69
2024-03-14T14:05:49.795Z,101026.81
2024-03-14T14:08:17.122Z,101018.06
2024-03-14T14:10:46.883Z,101025.91
2024-03-14T14:13:14.737Z,101018.19
2024-03-14T14:15:44.757Z,101012.53
2024-03-14T14:18:12.628Z,101013.03
2024-03-14T14:20:42.091Z,101009.03
2024-03-14T14:23:09.630Z,101002.00
2024-03-14T14:25:39.819Z,100997.78
2024-03-14T14:28:08.959Z,101000.44
2024-03-14T14:30:37.605Z,101003.28
2024-03-14T14:33:05.305Z,100997.94
2024-03-14T14:35:32.474Z,100999.13
2024-03-14T14:37:59.453Z,100990.44
2024-03-14T14:40:26.615Z,100980.38
2024-03-14T14:42:59.249Z,100979.50
2024-03-14T14:45:26.871Z,100983.19
2024-03-14T14:47:53.992Z,100978.41
2024-03-14T14:50:21.306Z,100979.34
2024-03-14T14:52:48.594Z,100970.19
2024-03-14T14:55:15.817Z,100974.44
2024-03-14T14:57:47.958Z,100972.22
2024-03-14T15:00:16.681Z,100965.09
2024-03-14T15:02:46.905Z,100965.59
2024-03-14T15:05:14.500Z,100962.75
2024-03-14T15:07:44.777Z,100956.59
2024-03-14T15:10:13.771Z,100946.00
2024-03-14T15:12:50.032Z,100945.34
2024-03-14T15:15:24.444Z,100939.22
2024-03-14T15:17:52.331Z,100941.13
2024-03-14T15:20:23.133Z,100934.25
2024-03-14T15:22:54.400Z,100930.47
2024-03-14T15:25:22.990Z,100935.00
2024-03-14T15:27:51.005Z,100931.41
2024-03-14T15:30:19.999Z,100927.09
2024-03-14T15:32:47.792Z,100925.31
2024-03-14T15:35:16.964Z,100920.38
2024-03-14T15:37:46.003Z,100925.25
2024-03-14T15:40:17.250Z,100917.47
2024-03-14T15:42:45.528Z,100915.75
2024-03-14T15:45:18.695Z,100920.34
2024-03-14T15:47:49.914Z,100912.09
2024-03-14T15:50:19.387Z,100908.00
2024-03-14T15:52:46.548Z,100912.91
2024-03-14T15:55:15.941Z,100907.91
2024-03-14T15:57:48.747Z,100907.06
2024-03-14T16:00:18.048Z,100904.50
2024-03-14T16:02:46.196Z,100899.34
2024-03-14T16:05:17.697Z,100890.97
2024-03-14T16:07:46.870Z,100889.28
2024-03-14T16:10:14.239Z,100885.81
2024-03-14T16:12:42.117Z,100885.59
2024-03-14T16:15:13.615Z,100891.69
2024-03-14T16:17:41.456Z,100891.84
2024-03-14T16:20:48.882Z,100890.91
2024-03-14T16:23:16.552Z,100886.22
2024-03-14T16:25:43.554Z,100881.41
2024-03-14T16:28:11.180Z,100874.38
2024-03-14T16:30:38.904Z,100883.91
2024-03-14T16:33:08.058Z,100877.19
2024-03-14T16:35:37.801Z,100871.50
2024-03-14T16:38:04.954Z,100874.88
2024-03-14T16:40:33.585Z,100878.66
2024-03-14T16:43:01.357Z,100869.38
2024-03-14T16:45:33.194Z,100868.16
2024-03-14T16:48:02.977Z,100865.47
2024-03-14T16:50:31.820Z,100863.31
2024-03-14T16:52:59.614Z,100854.34
2024-03-14T16:55:29.628Z,100862.13
2024-03-14T16:57:58.971Z,100851.97
2024-03-14T17:00:31.584Z,100848.69
2024-03-14T17:02:59.821Z,100860.19
2024-03-14T17:05:26.942Z,100852.94
2024-03-14T17:07:53.978Z,100847.59
2024-03-14T17:10:24.599Z,100859.25
2024-03-14T17:12:52.412Z,100846.38
2024-03-14T17:15:19.719Z,100854.84
2024-03-14T17:17:47.075Z,100856.44
2024-03-14T17:20:15.619Z,100857.03
2024-03-14T17:22:43.540Z,100851.03
2024-03-14T17:25:12.130Z,100851.50
2024-03-14T17:27:41.811Z,100852.06
2024-03-14T17:30:09.808Z,100852.66
2024-03-14T17:32:38.787Z,100841.38
2024-03-14T17:35:08.554Z,100854.69
2024-03-14T17:37:36.288Z,100845.22
2024-03-14T17:40:13.279Z,100852.25
2024-03-14T17:42:44.722Z,100862.72
2024-03-14T17:45:18.983Z,100858.56
2024-03-14T17:47:48.095Z,100854.69
2024-03-14T17:50:16.535Z,100855.41
2024-03-14T17:52:46.806Z,100848.97
2024-03-14T17:55:15.223Z,100852.00
2024-03-14T17:57:44.120Z,100849.38
2024-03-14T18:00:12.364Z,100845.09
2024-03-14T18:02:40.896Z,100853.56
2024-03-14T18:05:14.205Z,100859.28
2024-03-14T18:07:45.277Z,100866.28
2024-03-14T18:10:15.972Z,100860.41
2024-03-14T18:12:44.855Z,100870.25
2024-03-14T18:15:14.838Z,100873.25
2024-03-14T18:17:43.089Z,100868.13
2024-03-14T18:20:10.884Z,100874.69
2024-03-14T18:22:39.341Z,100876.56
2024-03-14T18:25:06.634Z,100862.25
2024-03-14T18:27:35.236Z,100867.97
2024-03-14T18:30:03.118Z,100874.38
2024-03-14T18:32:30.131Z,100869.38
2024-03-14T18:34:57.076Z,100872.97
2024-03-14T18:37:24.363Z,100875.09
2024-03-14T18:39:54.221Z,100870.19
2024-03-14T18:42:21.440Z,100866.91
2024-03-14T18:44:58.574Z,100868.06
2024-03-14T18:47:25.590Z,100868.19
2024-03-14T18:49:53.564Z,100867.31
2024-03-14T18:52:20.630Z,100865.47
2024-03-14T18:54:49.878Z,100856.47
2024-03-14T18:57:17.945Z,100847.72
2024-03-14T18:59:47.148Z,100842.31
2024-03-14T19:02:15.129Z,100851.19
2024-03-14T19:04:43.882Z,100845.75
2024-03-14T19:07:11.006Z,100845.88
2024-03-14T19:09:38.382Z,100844.28
2024-03-14T19:12:06.649Z,100850.00
2024-03-14T19:14:34.902Z,100841.09
2024-03-14T19:17:01.897Z,100836.97
2024-03-14T19:19:31.892Z,100830.81
2024-03-14T19:21:58.882Z,100842.09
2024-03-14T19:24:26.133Z,100847.81
2024-03-14T19:26:53.975Z,100851.03
2024-03-14T19:29:24.320Z,100842.31
2024-03-14T19:31:54.662Z,100849.63
2024-03-14T19:34:23.182Z,100840.75
2024-03-14T19:36:50.303Z,100846.91
2024-03-14T19:39:17.462Z,100845.75
2024-03-14T19:41:44.437Z,100846.47
2024-03-14T19:44:11.497Z,100836.63
2024-03-14T19:46:39.037Z,100831.91
2024-03-14T19:49:06.015Z,100831.75
2024-03-14T19:51:33.353Z,100830.94
2024-03-14T19:54:02.320Z,100828.06
2024-03-14T19:56:30.216Z,100826.22
2024-03-14T19:58:58.517Z,100825.34
2024-03-14T20:01:25.586Z,100821.78
2024-03-14T20:03:52.789Z,100817.34
2024-03-14T20:06:20.807Z,100812.91
2024-03-14T20:08:48.411Z,100821.03
2024-03-14T20:11:16.086Z,100820.34
2024-03-14T20:13:43.154Z,100811.34
2024-03-14T20:16:15.326Z,100815.91
2024-03-14T20:18:42.743Z,100815.31
2024-03-14T20:21:10.943Z,100809.06
2024-03-14T20:23:38.105Z,100803.03
2024-03-14T20:26:14.214Z,100804.88
2024-03-14T20:28:42.052Z,100801.44
2024-03-14T20:31:09.659Z,100807.00
2024-03-14T20:33:36.976Z,100804.44
2024-03-14T20:36:05.911Z,100798.28
2024-03-14T20:38:33.433Z,100803.13
2024-03-14T20:41:03.778Z,100793.41
2024-03-14T20:43:31.808Z,100789.69
2024-03-14T20:45:58.823Z,100787.13
2024-03-14T20:48:26.065Z,100793.28
2024-03-14T20:50:53.421Z,100795.41
2024-03-14T20:53:20.382Z,100789.97
2024-03-14T20:56:25.203Z,100784.81
2024-03-14T20:58:52.296Z,100786.69
2024-03-14T21:01:20.199Z,100783.22
2024-03-14T21:03:47.707Z,100786.94
2024-03-14T21:06:15.097Z,100780.66
2024-03-14T21:08:58.083Z,100792.38
2024-03-14T21:11:25.314Z,100791.38
2024-03-14T21:13:53.270Z,100792.38
2024-03-14T21:16:21.659Z,100788.78
2024-03-14T21:18:49.195Z,100789.06
2024-03-14T21:21:16.439Z,100790.09
2024-03-14T21:23:44.379Z,100794.66
2024-03-14T21:26:11.378Z,100783.34
2024-03-14T21:28:38.612Z,100779.91
2024-03-14T21:31:06.011Z,100785.31
2024-03-14T21:33:35.947Z,100783.19
2024-03-14T21:36:03.105Z,100785.91
2024-03-14T21:38:30.122Z,100784.22
2024-03-14T21:40:57.110Z,100788.91
2024-03-14T21:43:24.296Z,100782.16
2024-03-14T21:45:51.656Z,100783.41
2024-03-14T21:48:19.061Z,100783.00
2024-03-14T21:50:47.763Z,100783.00
2024-03-14T21:53:14.831Z,100785.13
2024-03-14T21:55:41.832Z,100780.81
2024-03-14T21:58:08.907Z,100785.91
2024-03-14T22:00:35.917Z,100781.41
2024-03-14T22:03:03.890Z,100786.91
2024-03-14T22:05:31.994Z,100777.72
2024-03-14T22:07:59.105Z,100769.09
2024-03-14T22:10:26.136Z,100773.94
2024-03-14T22:12:53.428Z,100774.06
2024-03-14T22:15:20.584Z,100773.59
2024-03-14T22:17:47.709Z,100779.28
2024-03-14T22:20:21.163Z,100781.66
2024-03-14T22:22:48.999Z,100777.28
2024-03-14T22:25:17.203Z,100778.78
2024-03-14T22:27:44.565Z,100782.03
2024-03-14T22:30:12.383Z,100782.78
2024-03-14T22:32:39.629Z,100782.31
2024-03-14T22:35:07.393Z,100779.00
2024-03-14T22:37:34.472Z,100767.84
2024-03-14T22:40:01.413Z,100762.81
2024-03-14T22:42:28.470Z,100773.91
2024-03-14T22:44:56.173Z,100760.63
2024-03-14T22:47:24.172Z,100771.69
2024-03-14T22:49:51.146Z,100769.38
2024-03-14T22:52:19.006Z,100759.91
2024-03-14T22:54:46.114Z,100754.63
2024-03-14T22:57:13.187Z,100754.00
2024-03-14T22:59:40.185Z,100760.41
2024-03-14T23:02:07.124Z,100751.81
2024-03-14T23:04:34.516Z,100760.31
2024-03-14T23:07:03.370Z,100763.38
2024-03-14T23:09:31.685Z,100750.38
2024-03-14T23:12:00.457Z,100755.31
2024-03-14T23:14:27.419Z,100743.63
2024-03-14T23:16:55.123Z,100743.38
2024-03-14T23:19:23.191Z,100742.88
2024-03-14T23:21:50.342Z,100745.81
2024-03-14T23:24:18.944Z,100743.38
2024-03-14T23:26:46.577Z,100747.91
2024-03-14T23:29:13.924Z,100743.63
2024-03-14T23:31:41.889Z,100747.41
2024-03-14T23:34:10.511Z,100735.88
2024-03-14T23:36:38.321Z,100734.16
2024-03-14T23:39:07.207Z,100732.31
2024-03-14T23:41:35.041Z,100733.41
2024-03-14T23:44:02.273Z,100724.34
2024-03-14T23:46:30.418Z,100729.50
2024-03-14T23:48:57.845Z,100729.50
2024-03-14T23:51:26.241Z,100728.50
2024-03-14T23:53:53.383Z,100727.28
2024-03-14T23:56:20.378Z,100727.16
2024-03-14T23:58:47.329Z,100734.16
